createdAt,value
2018-04-23T00:02:23.372Z,14.00
2018-04-23T00:04:50.830Z,14.00
2018-04-23T00:07:18.352Z,14.00
2018-04-23T00:09:45.859Z,13.90
2018-04-23T00:12:13.388Z,13.80
2018-04-23T00:14:40.850Z,13.70
2018-04-23T00:17:08.356Z,13.50
2018-04-23T00:19:36.626Z,13.10
2018-04-23T00:22:04.845Z,13.00
2018-04-23T00:24:32.364Z,12.90
2018-04-23T00:27:00.595Z,12.80
2018-04-23T00:29:28.074Z,12.70
2018-04-23T00:31:55.542Z,12.60
2018-04-23T00:34:23.827Z,12.40
2018-04-23T00:36:52.096Z,12.40
2018-04-23T00:39:20.357Z,12.30
2018-04-23T00:41:47.831Z,12.30
2018-04-23T00:44:16.085Z,12.20
2018-04-23T00:46:43.583Z,12.20
2018-04-23T00:49:11.099Z,12.10
2018-04-23T00:51:38.611Z,12.10
2018-04-23T00:54:06.085Z,12.10
2018-04-23T00:56:33.938Z,12.00
2018-04-23T00:59:01.414Z,12.00
2018-04-23T01:01:28.924Z,12.00
2018-04-23T01:03:57.200Z,12.00
2018-04-23T01:06:25.484Z,12.00
2018-04-23T01:08:52.999Z,12.00
2018-04-23T01:11:20.500Z,12.00
2018-04-23T01:13:48.016Z,12.00
2018-04-23T01:16:15.478Z,12.00
2018-04-23T01:18:43.006Z,12.00
2018-04-23T01:21:10.470Z,11.90
2018-04-23T01:23:37.952Z,11.80
2018-04-23T01:26:05.455Z,11.80
2018-04-23T01:28:32.932Z,11.70
2018-04-23T01:31:00.444Z,11.70
2018-04-23T01:33:28.715Z,11.80
2018-04-23T01:35:56.951Z,11.80
2018-04-23T01:38:24.477Z,11.70
2018-04-23T01:40:51.934Z,11.60
2018-04-23T01:43:19.409Z,11.60
2018-04-23T01:45:46.883Z,11.50
2018-04-23T01:48:14.370Z,11.50
2018-04-23T01:50:41.871Z,11.40
2018-04-23T01:53:09.344Z,11.30
2018-04-23T01:55:36.822Z,11.30
2018-04-23T01:58:04.286Z,11.20
2018-04-23T02:00:31.815Z,11.10
2018-04-23T02:02:59.319Z,11.10
2018-04-23T02:05:27.628Z,11.00
2018-04-23T02:07:55.139Z,11.00
2018-04-23T02:10:22.657Z,11.00
2018-04-23T02:12:50.126Z,11.00
2018-04-23T02:15:17.648Z,11.00
2018-04-23T02:17:45.119Z,11.00
2018-04-23T02:20:12.643Z,11.00
2018-04-23T02:22:40.913Z,11.00
2018-04-23T02:25:08.383Z,11.00
2018-04-23T02:27:36.651Z,11.00
2018-04-23T02:30:04.936Z,10.90
2018-04-23T02:32:33.200Z,10.90
2018-04-23T02:35:00.720Z,10.90
2018-04-23T02:37:28.987Z,10.90
2018-04-23T02:39:56.458Z,10.90
2018-04-23T02:42:23.985Z,10.90
2018-04-23T02:44:51.462Z,10.90
2018-04-23T02:47:18.930Z,10.90
2018-04-23T02:49:46.410Z,10.80
2018-04-23T02:52:13.875Z,10.80
2018-04-23T02:54:42.180Z,10.80
2018-04-23T02:57:09.656Z,10.80
2018-04-23T02:59:37.125Z,10.80
2018-04-23T03:02:04.639Z,10.80
2018-04-23T03:04:32.878Z,10.70
2018-04-23T03:07:00.347Z,10.70
2018-04-23T03:09:27.822Z,10.70
2018-04-23T03:11:56.058Z,10.70
2018-04-23T03:14:23.571Z,10.70
2018-04-23T03:16:51.072Z,10.70
2018-04-23T03:19:18.532Z,10.70
2018-04-23T03:21:46.006Z,10.70
2018-04-23T03:24:13.515Z,10.60
2018-04-23T03:26:41.028Z,10.60
2018-04-23T03:29:08.529Z,10.60
2018-04-23T03:31:36.041Z,10.60
2018-04-23T03:34:04.284Z,10.60
2018-04-23T03:36:31.796Z,10.50
2018-04-23T03:39:00.028Z,10.70
2018-04-23T03:41:27.518Z,10.70
2018-04-23T03:43:55.787Z,10.60
2018-04-23T03:46:24.075Z,10.50
2018-04-23T03:48:52.350Z,10.50
2018-04-23T03:51:20.593Z,10.50
2018-04-23T03:53:48.106Z,10.50
2018-04-23T03:56:15.581Z,10.50
2018-04-23T03:58:43.067Z,10.50
2018-04-23T04:01:10.584Z,10.40
2018-04-23T04:03:38.054Z,10.40
2018-04-23T04:06:05.534Z,10.40
2018-04-23T04:08:33.044Z,10.30
2018-04-23T04:11:00.568Z,10.30
2018-04-23T04:13:39.943Z,10.30
2018-04-23T04:16:19.498Z,10.30
2018-04-23T04:18:46.971Z,10.40
2018-04-23T04:21:14.462Z,10.50
2018-04-23T04:23:42.694Z,10.60
2018-04-23T04:26:10.216Z,10.60
2018-04-23T04:28:38.448Z,10.90
2018-04-23T04:31:07.555Z,11.10
2018-04-23T04:33:35.055Z,11.10
2018-04-23T04:36:02.534Z,11.30
2018-04-23T04:38:30.036Z,11.40
2018-04-23T04:40:57.559Z,11.60
2018-04-23T04:43:25.064Z,11.70
2018-04-23T04:45:53.307Z,11.90
2018-04-23T04:48:20.814Z,11.90
2018-04-23T04:50:48.332Z,12.00
2018-04-23T04:53:15.910Z,12.20
2018-04-23T04:55:43.502Z,12.30
2018-04-23T04:58:11.108Z,12.50
2018-04-23T05:00:38.692Z,12.50
2018-04-23T05:03:06.282Z,12.60
2018-04-23T05:05:33.837Z,12.70
2018-04-23T05:08:01.435Z,12.70
2018-04-23T05:10:29.026Z,12.70
2018-04-23T05:12:57.386Z,12.80
2018-04-23T05:15:25.722Z,12.80
2018-04-23T05:17:53.318Z,12.80
2018-04-23T05:20:20.854Z,12.80
2018-04-23T05:22:48.425Z,12.80
2018-04-23T05:25:16.002Z,12.90
2018-04-23T05:27:43.533Z,13.00
2018-04-23T05:30:11.040Z,13.20
2018-04-23T05:32:39.824Z,13.60
2018-04-23T05:35:08.100Z,13.80
2018-04-23T05:37:36.404Z,14.00
2018-04-23T05:40:04.009Z,14.00
2018-04-23T05:42:31.549Z,14.10
2018-04-23T05:44:59.598Z,14.30
2018-04-23T05:47:27.264Z,14.40
2018-04-23T05:49:54.895Z,14.60
2018-04-23T05:52:22.540Z,14.90
2018-04-23T05:54:50.017Z,15.20
2018-04-23T05:57:17.652Z,15.60
2018-04-23T05:59:45.311Z,15.90
2018-04-23T06:02:13.072Z,16.50
2018-04-23T06:04:41.436Z,18.10
2018-04-23T06:07:08.958Z,18.00
2018-04-23T06:09:36.538Z,19.10
2018-04-23T06:12:04.340Z,20.00
2018-04-23T06:14:32.591Z,22.00
2018-04-23T06:17:00.112Z,21.90
2018-04-23T06:19:27.621Z,23.10
2018-04-23T06:21:55.103Z,23.20
2018-04-23T06:24:22.577Z,23.60
2018-04-23T06:26:50.100Z,23.10
2018-04-23T06:29:17.600Z,22.90
2018-04-23T06:31:45.095Z,22.50
2018-04-23T06:34:12.599Z,21.90
2018-04-23T06:36:40.051Z,22.50
2018-04-23T06:39:07.518Z,22.90
2018-04-23T06:41:34.990Z,23.10
2018-04-23T06:44:02.505Z,23.60
2018-04-23T06:46:30.772Z,24.80
2018-04-23T06:48:58.268Z,24.70
2018-04-23T06:51:25.806Z,24.10
2018-04-23T06:53:54.283Z,24.10
2018-04-23T06:56:22.566Z,23.10
2018-04-23T06:58:50.844Z,22.20
2018-04-23T07:01:19.079Z,21.90
2018-04-23T07:03:46.562Z,21.90
2018-04-23T07:06:14.804Z,21.80
2018-04-23T07:08:42.319Z,21.80
2018-04-23T07:11:09.832Z,22.20
2018-04-23T07:13:37.315Z,23.20
2018-04-23T07:16:05.598Z,25.50
2018-04-23T07:18:33.846Z,25.10
2018-04-23T07:21:01.323Z,25.10
2018-04-23T07:23:29.587Z,25.00
2018-04-23T07:25:57.090Z,25.00
2018-04-23T07:28:24.604Z,24.30
2018-04-23T07:30:52.117Z,23.60
2018-04-23T07:33:19.627Z,24.40
2018-04-23T07:35:47.899Z,23.80
2018-04-23T07:38:15.444Z,23.80
2018-04-23T07:40:42.938Z,24.10
2018-04-23T07:43:11.175Z,22.40
2018-04-23T07:45:38.686Z,22.40
2018-04-23T07:48:06.159Z,21.80
2018-04-23T07:50:33.669Z,22.00
2018-04-23T07:53:01.977Z,24.10
2018-04-23T07:55:29.470Z,24.10
2018-04-23T07:57:56.942Z,24.60
2018-04-23T08:00:24.474Z,25.30
2018-04-23T08:02:52.030Z,27.20
2018-04-23T08:05:19.526Z,28.80
2018-04-23T08:07:47.037Z,28.30
2018-04-23T08:10:14.536Z,28.40
2018-04-23T08:12:42.848Z,27.40
2018-04-23T08:15:10.334Z,27.40
2018-04-23T08:17:37.798Z,26.00
2018-04-23T08:20:05.266Z,25.80
2018-04-23T08:22:32.742Z,26.20
2018-04-23T08:25:01.019Z,28.10
2018-04-23T08:27:28.528Z,28.00
2018-04-23T08:29:56.061Z,28.30
2018-04-23T08:32:23.566Z,26.70
2018-04-23T08:34:51.047Z,27.30
2018-04-23T08:37:18.551Z,26.20
2018-04-23T08:39:46.038Z,25.50
2018-04-23T08:42:13.564Z,25.90
2018-04-23T08:44:41.043Z,26.20
2018-04-23T08:47:08.514Z,26.00
2018-04-23T08:49:35.987Z,25.00
2018-04-23T08:52:03.460Z,24.60
2018-04-23T08:54:31.750Z,24.60
2018-04-23T08:56:59.974Z,23.80
2018-04-23T08:59:27.491Z,23.80
2018-04-23T09:01:54.997Z,24.00
2018-04-23T09:04:22.481Z,23.90
2018-04-23T09:06:50.756Z,23.40
2018-04-23T09:09:19.266Z,23.20
2018-04-23T09:11:46.830Z,23.10
2018-04-23T09:14:14.308Z,23.30
2018-04-23T09:16:42.008Z,23.40
2018-04-23T09:19:09.530Z,23.40
2018-04-23T09:21:36.998Z,23.50
2018-04-23T09:24:04.524Z,23.90
2018-04-23T09:26:32.027Z,23.90
2018-04-23T09:28:59.502Z,23.10
2018-04-23T09:31:27.743Z,22.20
2018-04-23T09:33:55.231Z,22.20
2018-04-23T09:36:23.498Z,20.90
2018-04-23T09:38:50.980Z,20.90
2018-04-23T09:41:19.215Z,20.20
2018-04-23T09:43:46.700Z,20.20
2018-04-23T09:46:14.931Z,19.10
2018-04-23T09:48:42.406Z,19.10
2018-04-23T09:51:09.881Z,18.60
2018-04-23T09:53:37.392Z,18.00
2018-04-23T09:56:04.860Z,17.80
2018-04-23T09:58:32.412Z,17.20
2018-04-23T10:00:59.857Z,17.00
2018-04-23T10:03:41.941Z,16.60
2018-04-23T10:06:10.223Z,16.30
2018-04-23T10:08:38.496Z,16.20
2018-04-23T10:11:06.012Z,16.20
2018-04-23T10:13:33.513Z,16.30
2018-04-23T10:16:01.006Z,16.30
2018-04-23T10:18:29.280Z,16.10
2018-04-23T10:20:56.826Z,16.10
2018-04-23T10:23:24.303Z,16.00
2018-04-23T10:25:52.554Z,15.90
2018-04-23T10:28:20.031Z,15.90
2018-04-23T10:30:47.556Z,15.90
2018-04-23T10:33:15.022Z,16.00
2018-04-23T10:35:42.502Z,16.10
2018-04-23T10:38:10.746Z,16.30
2018-04-23T10:40:38.226Z,16.30
2018-04-23T10:43:06.509Z,16.70
2018-04-23T10:45:33.991Z,16.70
2018-04-23T10:48:01.497Z,16.80
2018-04-23T10:50:29.021Z,16.90
2018-04-23T10:52:57.254Z,17.20
2018-04-23T10:55:24.831Z,17.20
2018-04-23T10:57:52.298Z,17.30
2018-04-23T11:00:19.789Z,17.60
2018-04-23T11:02:47.265Z,17.70
2018-04-23T11:05:14.763Z,17.90
2018-04-23T11:07:42.288Z,18.10
2018-04-23T11:10:09.766Z,18.20
2018-04-23T11:12:37.275Z,18.50
2018-04-23T11:15:04.758Z,18.50
2018-04-23T11:17:32.236Z,18.60
2018-04-23T11:19:59.719Z,18.50
2018-04-23T11:22:28.008Z,18.70
2018-04-23T11:24:56.296Z,18.80
2018-04-23T11:27:24.532Z,18.70
2018-04-23T11:29:52.021Z,18.70
2018-04-23T11:32:20.257Z,17.80
2018-04-23T11:34:47.782Z,17.80
2018-04-23T11:37:15.279Z,17.80
2018-04-23T11:39:42.779Z,17.90
2018-04-23T11:42:10.266Z,18.00
2018-04-23T11:44:37.739Z,17.90
2018-04-23T11:47:06.040Z,18.10
2018-04-23T11:49:33.506Z,18.00
2018-04-23T11:52:01.808Z,17.80
2018-04-23T11:54:29.281Z,17.80
2018-04-23T11:56:56.799Z,17.90
2018-04-23T11:59:25.065Z,18.40
2018-04-23T12:01:52.592Z,18.40
2018-04-23T12:04:20.100Z,18.60
2018-04-23T12:06:48.391Z,18.50
2018-04-23T12:09:15.916Z,18.50
2018-04-23T12:11:43.377Z,18.70
2018-04-23T12:14:11.627Z,18.60
2018-04-23T12:16:39.106Z,18.50
2018-04-23T12:19:07.339Z,19.60
2018-04-23T12:21:34.911Z,19.60
2018-04-23T12:24:02.388Z,19.90
2018-04-23T12:26:29.899Z,20.00
2018-04-23T12:28:57.391Z,20.20
2018-04-23T12:31:24.926Z,19.80
2018-04-23T12:33:52.437Z,19.70
2018-04-23T12:36:20.683Z,20.00
2018-04-23T12:38:48.339Z,20.00
2018-04-23T12:41:15.870Z,19.90
2018-04-23T12:43:43.356Z,19.70
2018-04-23T12:46:11.728Z,19.10
2018-04-23T12:48:39.257Z,19.00
2018-04-23T12:51:06.833Z,19.10
2018-04-23T12:53:34.307Z,19.50
2018-04-23T12:56:01.832Z,19.80
2018-04-23T12:58:29.345Z,19.90
2018-04-23T13:00:56.855Z,20.20
2018-04-23T13:03:24.365Z,20.20
2018-04-23T13:05:52.725Z,19.90
2018-04-23T13:08:20.256Z,19.90
2018-04-23T13:10:47.731Z,19.80
2018-04-23T13:13:15.298Z,19.70
2018-04-23T13:15:43.567Z,19.50
2018-04-23T13:18:11.055Z,19.50
2018-04-23T13:20:39.351Z,19.30
2018-04-23T13:23:06.825Z,19.20
2018-04-23T13:25:34.315Z,19.40
2018-04-23T13:28:01.969Z,19.50
2018-04-23T13:30:29.507Z,19.30
2018-04-23T13:32:56.991Z,19.20
2018-04-23T13:35:24.507Z,19.30
2018-04-23T13:37:52.035Z,19.50
2018-04-23T13:40:19.543Z,19.40
2018-04-23T13:42:47.063Z,19.20
2018-04-23T13:45:15.326Z,19.20
2018-04-23T13:47:43.603Z,19.20
2018-04-23T13:50:11.112Z,19.20
2018-04-23T13:52:38.665Z,19.10
2018-04-23T13:55:06.181Z,19.10
2018-04-23T13:57:33.746Z,19.50
2018-04-23T14:00:02.016Z,19.90
2018-04-23T14:02:30.370Z,19.90
2018-04-23T14:04:57.849Z,19.80
2018-04-23T14:07:26.099Z,20.00
2018-04-23T14:09:53.573Z,20.00
2018-04-23T14:12:21.059Z,20.10
2018-04-23T14:14:48.543Z,20.20
2018-04-23T14:17:16.083Z,20.20
2018-04-23T14:19:43.550Z,20.30
2018-04-23T14:22:11.024Z,20.40
2018-04-23T14:24:38.522Z,20.10
2018-04-23T14:27:06.790Z,19.60
2018-04-23T14:29:34.319Z,19.60
2018-04-23T14:32:01.816Z,19.70
2018-04-23T14:34:29.398Z,20.20
2018-04-23T14:36:56.962Z,20.10
2018-04-23T14:39:24.458Z,20.00
2018-04-23T14:41:52.794Z,19.10
2018-04-23T14:44:20.321Z,19.00
2018-04-23T14:46:48.576Z,18.80
2018-04-23T14:49:16.104Z,18.70
2018-04-23T14:51:43.701Z,18.60
2018-04-23T14:54:11.273Z,18.50
2018-04-23T14:56:39.694Z,18.20
2018-04-23T14:59:07.310Z,18.20
2018-04-23T15:01:35.647Z,18.30
2018-04-23T15:04:03.175Z,18.30
2018-04-23T15:06:30.745Z,18.50
2018-04-23T15:08:59.028Z,19.00
2018-04-23T15:11:26.538Z,19.00
2018-04-23T15:13:54.033Z,19.40
2018-04-23T15:16:21.632Z,19.80
2018-04-23T15:18:49.151Z,19.90
2018-04-23T15:21:16.685Z,19.70
2018-04-23T15:23:44.988Z,19.40
2018-04-23T15:26:12.536Z,19.40
2018-04-23T15:28:40.059Z,19.30
2018-04-23T15:31:07.585Z,19.40
2018-04-23T15:33:35.198Z,19.50
2018-04-23T15:36:03.544Z,19.40
2018-04-23T15:38:31.026Z,19.40
2018-04-23T15:40:58.556Z,19.40
2018-04-23T15:43:26.108Z,19.20
2018-04-23T15:45:53.648Z,19.10
2018-04-23T15:48:21.143Z,18.90
2018-04-23T15:50:48.610Z,18.90
2018-04-23T15:53:16.879Z,18.60
2018-04-23T15:55:44.402Z,18.50
2018-04-23T15:58:11.933Z,18.40
2018-04-23T16:00:39.411Z,18.30
2018-04-23T16:03:06.952Z,18.20
2018-04-23T16:05:34.430Z,18.30
2018-04-23T16:08:01.986Z,18.10
2018-04-23T16:10:29.466Z,18.00
2018-04-23T16:12:56.967Z,17.80
2018-04-23T16:15:26.387Z,17.70
2018-04-23T16:17:56.476Z,17.70
2018-04-23T16:20:24.764Z,17.50
2018-04-23T16:22:53.040Z,17.40
2018-04-23T16:25:21.333Z,17.40
2018-04-23T16:27:48.810Z,17.40
2018-04-23T16:30:16.402Z,17.30
2018-04-23T16:32:43.937Z,17.10
2018-04-23T16:35:11.491Z,17.10
2018-04-23T16:37:38.969Z,16.90
2018-04-23T16:40:06.464Z,16.70
2018-04-23T16:42:34.740Z,16.40
2018-04-23T16:45:03.028Z,16.20
2018-04-23T16:47:30.504Z,16.20
2018-04-23T16:49:58.102Z,16.10
2018-04-23T16:52:25.654Z,16.00
2018-04-23T16:54:53.669Z,16.00
2018-04-23T16:57:21.138Z,16.00
2018-04-23T16:59:48.619Z,15.90
2018-04-23T17:02:16.095Z,15.70
2018-04-23T17:04:43.586Z,15.30
2018-04-23T17:07:11.822Z,15.10
2018-04-23T17:09:39.357Z,15.10
2018-04-23T17:12:06.868Z,15.10
2018-04-23T17:14:35.178Z,14.80
2018-04-23T17:17:02.696Z,14.70
2018-04-23T17:19:30.203Z,14.70
2018-04-23T17:21:58.490Z,14.60
2018-04-23T17:24:26.016Z,14.60
2018-04-23T17:26:53.502Z,14.50
2018-04-23T17:29:21.024Z,14.50
2018-04-23T17:31:48.567Z,14.50
2018-04-23T17:34:16.839Z,14.40
2018-04-23T17:36:44.365Z,14.40
2018-04-23T17:39:11.853Z,14.50
2018-04-23T17:41:39.410Z,14.50
2018-04-23T17:44:06.845Z,14.50
2018-04-23T17:46:34.384Z,14.50
2018-04-23T17:49:01.912Z,14.40
2018-04-23T17:51:29.464Z,14.30
2018-04-23T17:53:57.751Z,14.30
2018-04-23T17:56:25.292Z,14.30
2018-04-23T17:58:53.579Z,14.20
2018-04-23T18:01:21.145Z,14.20
2018-04-23T18:03:48.652Z,14.10
2018-04-23T18:06:16.185Z,14.10
2018-04-23T18:08:43.706Z,14.00
2018-04-23T18:11:12.004Z,13.90
2018-04-23T18:13:39.516Z,13.90
2018-04-23T18:16:07.326Z,13.90
2018-04-23T18:18:34.799Z,13.80
2018-04-23T18:21:02.328Z,13.70
2018-04-23T18:23:29.873Z,13.60
2018-04-23T18:25:58.134Z,13.50
2018-04-23T18:28:25.597Z,13.50
2018-04-23T18:30:53.847Z,13.50
2018-04-23T18:33:21.310Z,13.40
2018-04-23T18:35:48.827Z,13.40
2018-04-23T18:38:16.337Z,13.40
2018-04-23T18:40:43.818Z,13.30
2018-04-23T18:43:11.297Z,13.30
2018-04-23T18:45:38.796Z,13.30
2018-04-23T18:48:06.316Z,13.20
2018-04-23T18:50:33.781Z,13.20
2018-04-23T18:53:01.266Z,13.20
2018-04-23T18:55:28.763Z,13.10
2018-04-23T18:57:57.057Z,13.00
2018-04-23T19:00:24.601Z,13.00
2018-04-23T19:02:52.165Z,13.00
2018-04-23T19:05:19.693Z,12.90
2018-04-23T19:07:47.221Z,12.80
2018-04-23T19:10:14.696Z,12.80
2018-04-23T19:12:42.224Z,12.80
2018-04-23T19:15:09.695Z,12.80
2018-04-23T19:17:37.211Z,12.80
2018-04-23T19:20:04.676Z,12.90
2018-04-23T19:22:32.162Z,12.80
2018-04-23T19:24:59.635Z,12.80
2018-04-23T19:27:27.246Z,12.80
2018-04-23T19:29:54.670Z,12.80
2018-04-23T19:32:22.903Z,12.70
2018-04-23T19:34:50.442Z,12.70
2018-04-23T19:37:17.929Z,12.70
2018-04-23T19:39:45.402Z,12.70
2018-04-23T19:42:12.972Z,12.70
2018-04-23T19:44:40.412Z,12.60
2018-04-23T19:47:07.931Z,12.50
2018-04-23T19:49:35.454Z,12.50
2018-04-23T19:52:03.752Z,12.70
2018-04-23T19:54:31.252Z,12.60
2018-04-23T19:56:58.741Z,12.70
2018-04-23T19:59:26.239Z,12.70
2018-04-23T20:01:53.776Z,12.70
2018-04-23T20:04:21.305Z,12.70
2018-04-23T20:06:48.848Z,12.70
2018-04-23T20:09:17.091Z,12.70
2018-04-23T20:11:44.606Z,12.70
2018-04-23T20:14:12.868Z,12.70
2018-04-23T20:16:40.485Z,12.70
2018-04-23T20:19:08.096Z,12.60
2018-04-23T20:21:35.626Z,12.60
2018-04-23T20:24:03.157Z,12.50
2018-04-23T20:26:30.634Z,12.50
2018-04-23T20:28:58.121Z,12.40
2018-04-23T20:31:25.603Z,12.30
2018-04-23T20:33:53.869Z,12.10
2018-04-23T20:36:22.148Z,12.10
2018-04-23T20:38:50.723Z,12.00
2018-04-23T20:41:19.050Z,11.90
2018-04-23T20:43:46.571Z,11.90
2018-04-23T20:46:14.872Z,12.10
2018-04-23T20:48:42.354Z,12.10
2018-04-23T20:51:09.868Z,12.20
2018-04-23T20:53:37.359Z,12.20
2018-04-23T20:56:04.829Z,12.20
2018-04-23T20:58:32.332Z,12.30
2018-04-23T21:01:00.594Z,12.30
2018-04-23T21:03:28.141Z,12.30
2018-04-23T21:05:55.668Z,12.30
2018-04-23T21:08:23.187Z,12.20
2018-04-23T21:10:50.702Z,12.20
2018-04-23T21:13:18.206Z,12.10
2018-04-23T21:15:45.685Z,12.10
2018-04-23T21:18:13.512Z,12.10
2018-04-23T21:20:41.796Z,11.90
2018-04-23T21:23:10.089Z,11.80
2018-04-23T21:25:37.603Z,11.80
2018-04-23T21:28:05.122Z,11.70
2018-04-23T21:30:32.619Z,11.70
2018-04-23T21:33:00.152Z,11.50
2018-04-23T21:35:27.715Z,11.30
2018-04-23T21:37:55.182Z,11.20
2018-04-23T21:40:22.727Z,11.20
2018-04-23T21:42:50.227Z,11.20
2018-04-23T21:45:17.778Z,11.30
2018-04-23T21:47:45.287Z,11.30
2018-04-23T21:50:12.774Z,11.40
2018-04-23T21:52:41.073Z,11.30
2018-04-23T21:55:09.372Z,11.30
2018-04-23T21:57:37.606Z,11.40
2018-04-23T22:00:05.148Z,11.30
2018-04-23T22:02:32.692Z,11.30
2018-04-23T22:05:00.215Z,11.30
2018-04-23T22:07:28.478Z,11.30
2018-04-23T22:09:56.738Z,11.30
2018-04-23T22:12:24.238Z,11.30
2018-04-23T22:14:51.758Z,11.30
2018-04-23T22:17:19.238Z,11.20
2018-04-23T22:19:47.503Z,11.10
2018-04-23T22:22:15.758Z,11.00
2018-04-23T22:24:43.291Z,11.00
2018-04-23T22:27:10.787Z,10.90
2018-04-23T22:29:38.295Z,10.80
2018-04-23T22:32:05.819Z,10.70
2018-04-23T22:34:34.086Z,10.40
2018-04-23T22:37:02.381Z,10.30
2018-04-23T22:39:30.663Z,10.20
2018-04-23T22:41:58.143Z,10.30
2018-04-23T22:44:25.610Z,10.30
2018-04-23T22:46:53.417Z,10.20
2018-04-23T22:52:53.269Z,10.00
2018-04-23T22:55:21.535Z,10.00
2018-04-23T22:57:49.809Z,10.00
2018-04-23T23:00:18.093Z,9.90
2018-04-23T23:02:46.360Z,9.80
2018-04-23T23:05:14.631Z,9.80
2018-04-23T23:07:42.915Z,9.80
2018-04-23T23:10:11.182Z,9.80
2018-04-23T23:12:39.424Z,9.70
2018-04-23T23:15:06.967Z,9.70
2018-04-23T23:17:34.450Z,9.70
2018-04-23T23:20:02.074Z,9.80
2018-04-23T23:22:29.511Z,9.70
2018-04-23T23:24:56.998Z,9.70
2018-04-23T23:27:24.535Z,9.60
2018-04-23T23:29:52.738Z,9.50
2018-04-23T23:32:20.234Z,9.50
2018-04-23T23:34:48.482Z,9.50
2018-04-23T23:37:15.985Z,9.50
2018-04-23T23:39:43.446Z,9.40
2018-04-23T23:42:10.933Z,9.30
2018-04-23T23:44:38.432Z,9.20
2018-04-23T23:47:05.950Z,9.10
2018-04-23T23:49:33.517Z,9.20
2018-04-23T23:52:00.995Z,9.20
2018-04-23T23:54:28.505Z,9.20
2018-04-23T23:56:56.003Z,9.10
2018-04-23T23:59:23.482Z,9.10
